createdAt,value
2018-02-16T00:01:20.875Z,9.06
2018-02-16T00:03:47.965Z,9.04
2018-02-16T00:06:15.289Z,8.99
2018-02-16T00:08:42.360Z,8.97
2018-02-16T00:11:09.423Z,9.02
2018-02-16T00:13:36.477Z,8.98
2018-02-16T00:16:03.615Z,8.93
2018-02-16T00:18:30.692Z,8.90
2018-02-16T00:20:57.785Z,8.94
2018-02-16T00:23:24.854Z,8.98
2018-02-16T00:25:51.924Z,8.96
2018-02-16T00:28:19.028Z,8.96
2018-02-16T00:30:46.033Z,9.02
2018-02-16T00:33:13.050Z,9.04
2018-02-16T00:35:40.114Z,9.08
2018-02-16T00:38:07.172Z,9.11
2018-02-16T00:40:34.231Z,9.14
2018-02-16T00:43:01.312Z,9.13
2018-02-16T00:45:28.359Z,9.12
2018-02-16T00:47:55.365Z,9.11
2018-02-16T00:50:22.321Z,9.10
2018-02-16T00:52:49.622Z,9.08
2018-02-16T00:55:16.747Z,9.09
2018-02-16T00:57:43.809Z,9.12
2018-02-16T01:00:10.847Z,9.12
2018-02-16T01:02:38.058Z,9.11
2018-02-16T01:05:05.061Z,9.05
2018-02-16T01:07:32.117Z,9.02
2018-02-16T01:09:59.183Z,9.05
2018-02-16T01:12:26.302Z,8.94
2018-02-16T01:14:53.408Z,8.75
2018-02-16T01:17:20.517Z,8.62
2018-02-16T01:19:47.573Z,8.54
2018-02-16T01:22:14.588Z,8.61
2018-02-16T01:24:41.791Z,8.72
2018-02-16T01:27:08.971Z,8.75
2018-02-16T01:29:36.030Z,8.73
2018-02-16T01:32:03.085Z,8.73
2018-02-16T01:34:30.155Z,8.70
2018-02-16T01:36:57.194Z,8.73
2018-02-16T01:39:24.224Z,8.76
2018-02-16T01:41:51.303Z,8.78
2018-02-16T01:44:18.387Z,8.78
2018-02-16T01:46:45.497Z,8.80
2018-02-16T01:49:12.510Z,8.77
2018-02-16T01:51:39.531Z,8.69
2018-02-16T01:54:06.677Z,8.63
2018-02-16T01:56:33.713Z,8.62
2018-02-16T01:59:00.739Z,8.72
2018-02-16T02:01:27.702Z,8.80
2018-02-16T02:03:54.766Z,8.85
2018-02-16T02:06:21.956Z,8.86
2018-02-16T02:08:48.990Z,8.83
2018-02-16T02:11:16.041Z,8.83
2018-02-16T02:13:43.133Z,8.86
2018-02-16T02:16:10.177Z,8.86
2018-02-16T02:18:37.400Z,8.90
2018-02-16T02:21:04.459Z,8.96
2018-02-16T02:23:31.482Z,9.02
2018-02-16T02:25:58.559Z,9.05
2018-02-16T02:28:25.922Z,8.99
2018-02-16T02:30:53.053Z,8.92
2018-02-16T02:33:20.682Z,8.89
2018-02-16T02:35:47.689Z,8.92
2018-02-16T02:38:14.711Z,8.92
2018-02-16T02:40:41.719Z,8.78
2018-02-16T02:43:08.732Z,8.69
2018-02-16T02:45:35.834Z,8.69
2018-02-16T02:48:02.834Z,8.72
2018-02-16T02:50:29.926Z,8.77
2018-02-16T02:52:57.007Z,8.83
2018-02-16T02:55:23.993Z,8.89
2018-02-16T02:57:51.245Z,8.95
2018-02-16T03:00:18.308Z,8.94
2018-02-16T03:02:45.412Z,9.00
2018-02-16T03:05:12.438Z,9.03
2018-02-16T03:07:39.485Z,9.05
2018-02-16T03:10:06.591Z,9.07
2018-02-16T03:12:33.879Z,9.09
2018-02-16T03:15:00.955Z,9.13
2018-02-16T03:17:28.085Z,9.13
2018-02-16T03:19:55.133Z,9.12
2018-02-16T03:22:22.233Z,9.12
2018-02-16T03:24:49.250Z,9.12
2018-02-16T03:27:16.573Z,9.13
2018-02-16T03:29:43.635Z,9.15
2018-02-16T03:32:10.667Z,9.19
2018-02-16T03:34:37.990Z,9.19
2018-02-16T03:37:05.066Z,9.24
2018-02-16T03:39:32.119Z,9.24
2018-02-16T03:41:59.450Z,9.13
2018-02-16T03:44:26.471Z,9.09
2018-02-16T03:46:53.552Z,9.10
2018-02-16T03:49:20.573Z,9.17
2018-02-16T03:51:47.587Z,9.20
2018-02-16T03:54:14.544Z,9.19
2018-02-16T03:56:41.863Z,9.15
2018-02-16T03:59:09.017Z,9.14
2018-02-16T04:01:36.131Z,9.13
2018-02-16T04:04:03.230Z,9.15
2018-02-16T04:06:30.241Z,9.14
2018-02-16T04:08:57.234Z,9.10
2018-02-16T04:11:24.338Z,9.08
2018-02-16T04:13:51.465Z,8.99
2018-02-16T04:16:18.564Z,9.01
2018-02-16T04:18:45.647Z,9.04
2018-02-16T04:21:12.734Z,9.02
2018-02-16T04:23:39.798Z,8.94
2018-02-16T04:26:06.819Z,8.92
2018-02-16T04:28:33.870Z,8.99
2018-02-16T04:31:00.893Z,9.02
2018-02-16T04:33:27.963Z,9.05
2018-02-16T04:35:55.023Z,9.03
2018-02-16T04:38:22.107Z,8.98
2018-02-16T04:40:49.213Z,9.05
2018-02-16T04:43:16.276Z,9.08
2018-02-16T04:45:43.426Z,9.14
2018-02-16T04:48:10.503Z,9.15
2018-02-16T04:50:37.595Z,9.20
2018-02-16T04:53:04.580Z,9.25
2018-02-16T04:55:31.611Z,9.26
2018-02-16T04:57:58.650Z,9.26
2018-02-16T05:00:25.750Z,9.18
2018-02-16T05:02:52.825Z,9.13
2018-02-16T05:05:19.908Z,9.15
2018-02-16T05:07:46.987Z,9.17
2018-02-16T05:10:14.062Z,9.20
2018-02-16T05:12:41.167Z,9.18
2018-02-16T05:15:08.212Z,9.23
2018-02-16T05:17:35.274Z,9.18
2018-02-16T05:20:02.324Z,9.15
2018-02-16T05:22:29.456Z,9.06
2018-02-16T05:24:56.530Z,9.11
2018-02-16T05:27:23.559Z,9.16
2018-02-16T05:29:50.542Z,9.11
2018-02-16T05:32:17.545Z,9.14
2018-02-16T05:34:44.567Z,9.14
2018-02-16T05:37:11.692Z,9.14
2018-02-16T05:39:38.724Z,9.14
2018-02-16T05:42:06.042Z,9.01
2018-02-16T05:44:33.109Z,8.99
2018-02-16T05:47:00.285Z,9.02
2018-02-16T05:49:27.367Z,9.10
2018-02-16T05:51:54.415Z,9.16
2018-02-16T05:54:21.455Z,9.14
2018-02-16T05:56:48.442Z,9.11
2018-02-16T05:59:15.573Z,9.12
2018-02-16T06:01:42.537Z,9.16
2018-02-16T06:04:09.675Z,9.11
2018-02-16T06:06:36.750Z,9.10
2018-02-16T06:09:03.915Z,9.10
2018-02-16T06:11:30.868Z,9.16
2018-02-16T06:13:57.949Z,9.20
2018-02-16T06:16:25.033Z,9.25
2018-02-16T06:18:52.127Z,9.29
2018-02-16T06:21:19.138Z,9.39
2018-02-16T06:23:46.158Z,9.44
2018-02-16T06:26:13.237Z,9.48
2018-02-16T06:28:40.297Z,9.54
2018-02-16T06:31:07.347Z,9.58
2018-02-16T06:33:35.552Z,9.56
2018-02-16T06:36:04.367Z,9.53
2018-02-16T06:38:31.407Z,9.50
2018-02-16T06:40:58.469Z,9.44
2018-02-16T06:43:25.528Z,9.42
2018-02-16T06:45:52.575Z,9.45
2018-02-16T06:48:19.696Z,9.53
2018-02-16T06:50:46.754Z,9.55
2018-02-16T06:53:13.826Z,9.58
2018-02-16T06:55:40.857Z,9.59
2018-02-16T06:58:07.893Z,9.57
2018-02-16T07:00:34.904Z,9.56
2018-02-16T07:03:01.980Z,9.52
2018-02-16T07:05:29.055Z,9.57
2018-02-16T07:07:56.159Z,9.62
2018-02-16T07:10:23.235Z,9.63
2018-02-16T07:12:50.272Z,9.60
2018-02-16T07:15:17.334Z,9.58
2018-02-16T07:17:45.220Z,9.55
2018-02-16T07:20:12.256Z,9.56
2018-02-16T07:22:39.327Z,9.66
2018-02-16T07:25:07.052Z,9.73
2018-02-16T07:27:34.109Z,9.81
2018-02-16T07:30:01.128Z,9.81
2018-02-16T07:32:28.201Z,9.84
2018-02-16T07:34:55.252Z,9.87
2018-02-16T07:37:22.299Z,9.89
2018-02-16T07:39:49.392Z,9.92
2018-02-16T07:42:16.913Z,10.02
2018-02-16T07:44:44.619Z,10.03
2018-02-16T07:47:11.660Z,10.06
2018-02-16T07:49:38.804Z,10.11
2018-02-16T07:52:05.821Z,10.13
2018-02-16T07:54:33.172Z,10.15
2018-02-16T07:57:00.285Z,10.22
2018-02-16T07:59:27.741Z,10.26
2018-02-16T08:01:54.829Z,10.31
2018-02-16T08:04:21.870Z,10.28
2018-02-16T08:06:48.939Z,10.31
2018-02-16T08:09:15.897Z,10.30
2018-02-16T08:11:43.213Z,10.35
2018-02-16T08:14:10.311Z,10.39
2018-02-16T08:16:37.403Z,10.40
2018-02-16T08:19:04.483Z,10.40
2018-02-16T08:21:31.508Z,10.50
2018-02-16T08:23:59.184Z,10.56
2018-02-16T08:26:26.349Z,10.61
2018-02-16T08:28:53.413Z,10.55
2018-02-16T08:31:20.517Z,10.50
2018-02-16T08:33:47.483Z,10.48
2018-02-16T08:36:15.145Z,10.53
2018-02-16T08:38:42.116Z,10.58
2018-02-16T08:41:09.158Z,10.54
2018-02-16T08:43:36.277Z,10.45
2018-02-16T08:46:03.466Z,10.46
2018-02-16T08:48:30.558Z,10.55
2018-02-16T08:50:57.643Z,10.64
2018-02-16T08:53:24.702Z,10.73
2018-02-16T08:55:51.757Z,10.84
2018-02-16T08:58:18.835Z,10.93
2018-02-16T09:00:45.811Z,10.94
2018-02-16T09:03:12.871Z,11.06
2018-02-16T09:05:39.844Z,11.09
2018-02-16T09:08:06.848Z,11.01
2018-02-16T09:10:33.897Z,10.96
2018-02-16T09:13:00.934Z,10.98
2018-02-16T09:15:27.970Z,10.92
2018-02-16T09:17:55.074Z,10.87
2018-02-16T09:20:22.162Z,11.00
2018-02-16T09:22:49.197Z,11.05
2018-02-16T09:25:16.280Z,11.03
2018-02-16T09:27:43.410Z,10.92
2018-02-16T09:30:10.503Z,10.88
2018-02-16T09:32:37.532Z,10.84
2018-02-16T09:35:04.578Z,10.92
2018-02-16T09:37:32.484Z,11.01
2018-02-16T09:40:00.579Z,11.00
2018-02-16T09:42:27.602Z,10.92
2018-02-16T09:44:54.675Z,10.95
2018-02-16T09:47:21.863Z,10.92
2018-02-16T09:49:48.900Z,10.90
2018-02-16T09:52:15.957Z,11.03
2018-02-16T09:54:43.079Z,10.99
2018-02-16T09:57:10.103Z,10.92
2018-02-16T09:59:37.160Z,11.00
2018-02-16T10:02:04.210Z,11.01
2018-02-16T10:04:31.225Z,11.07
2018-02-16T10:06:58.286Z,10.98
2018-02-16T10:09:25.398Z,11.01
2018-02-16T10:11:52.441Z,11.04
2018-02-16T10:14:19.556Z,11.17
2018-02-16T10:16:46.630Z,11.13
2018-02-16T10:19:13.652Z,11.10
2018-02-16T10:21:40.699Z,11.15
2018-02-16T10:24:07.792Z,11.20
2018-02-16T10:26:34.894Z,11.36
2018-02-16T10:29:02.109Z,11.71
2018-02-16T10:31:29.184Z,12.00
2018-02-16T10:33:56.231Z,12.26
2018-02-16T10:36:23.296Z,12.30
2018-02-16T10:38:50.375Z,12.33
2018-02-16T10:41:17.463Z,12.47
2018-02-16T10:43:44.463Z,12.21
2018-02-16T10:46:11.555Z,12.23
2018-02-16T10:48:39.235Z,12.07
2018-02-16T10:51:06.303Z,11.89
2018-02-16T10:53:33.399Z,11.75
2018-02-16T10:56:00.410Z,11.80
2018-02-16T10:58:27.499Z,11.81
2018-02-16T11:01:00.161Z,11.79
2018-02-16T11:03:32.920Z,11.75
2018-02-16T11:06:00.921Z,11.91
2018-02-16T11:08:33.563Z,12.12
2018-02-16T11:11:00.580Z,11.91
2018-02-16T11:13:27.664Z,11.87
2018-02-16T11:15:54.689Z,11.89
2018-02-16T11:18:21.755Z,11.87
2018-02-16T11:20:48.850Z,11.93
2018-02-16T11:23:15.900Z,11.91
2018-02-16T11:25:42.913Z,11.83
2018-02-16T11:28:09.988Z,11.72
2018-02-16T11:30:37.036Z,11.70
2018-02-16T11:33:04.680Z,11.80
2018-02-16T11:35:31.812Z,11.87
2018-02-16T11:37:58.948Z,11.88
2018-02-16T11:40:26.171Z,11.87
2018-02-16T11:42:53.242Z,11.75
2018-02-16T11:45:20.278Z,11.65
2018-02-16T11:47:47.372Z,11.67
2018-02-16T11:50:14.374Z,11.56
2018-02-16T11:52:41.454Z,11.56
2018-02-16T11:55:08.485Z,11.62
2018-02-16T11:57:35.652Z,11.57
2018-02-16T12:00:02.739Z,11.25
2018-02-16T12:02:29.858Z,11.01
2018-02-16T12:04:56.916Z,10.97
2018-02-16T12:07:23.969Z,10.92
2018-02-16T12:09:51.032Z,10.83
2018-02-16T12:12:18.031Z,10.73
2018-02-16T12:14:44.987Z,10.72
2018-02-16T12:17:12.024Z,10.76
2018-02-16T12:19:39.082Z,10.83
2018-02-16T12:22:06.095Z,10.86
2018-02-16T12:24:33.109Z,10.67
2018-02-16T12:27:00.203Z,10.67
2018-02-16T12:29:27.276Z,10.78
2018-02-16T12:31:54.301Z,10.88
2018-02-16T12:34:21.378Z,11.06
2018-02-16T12:36:48.715Z,11.15
2018-02-16T12:39:15.808Z,11.26
2018-02-16T12:41:42.956Z,11.39
2018-02-16T12:44:10.042Z,11.54
2018-02-16T12:46:37.067Z,11.35
2018-02-16T12:49:04.111Z,11.05
2018-02-16T12:51:31.113Z,10.66
2018-02-16T12:53:58.175Z,10.39
2018-02-16T12:56:25.250Z,10.19
2018-02-16T12:58:52.209Z,10.13
2018-02-16T13:01:19.316Z,10.26
2018-02-16T13:03:46.305Z,10.47
2018-02-16T13:06:13.375Z,10.44
2018-02-16T13:08:40.473Z,10.51
2018-02-16T13:11:07.521Z,10.62
2018-02-16T13:13:34.595Z,10.69
2018-02-16T13:16:01.632Z,10.73
2018-02-16T13:18:28.665Z,10.66
2018-02-16T13:20:55.731Z,10.55
2018-02-16T13:23:22.775Z,10.58
2018-02-16T13:25:49.775Z,10.68
2018-02-16T13:28:16.822Z,10.67
2018-02-16T13:30:43.874Z,10.72
2018-02-16T13:33:11.167Z,10.68
2018-02-16T13:35:38.130Z,10.74
2018-02-16T13:38:05.158Z,10.62
2018-02-16T13:40:32.235Z,10.53
2018-02-16T13:42:59.277Z,10.52
2018-02-16T13:45:26.355Z,10.60
2018-02-16T13:47:53.454Z,10.65
2018-02-16T13:50:20.738Z,10.69
2018-02-16T13:52:47.789Z,10.73
2018-02-16T13:55:14.912Z,10.79
2018-02-16T13:57:41.948Z,10.84
2018-02-16T14:00:08.943Z,10.79
2018-02-16T14:02:36.071Z,10.54
2018-02-16T14:05:03.190Z,10.31
2018-02-16T14:07:30.809Z,10.09
2018-02-16T14:09:57.856Z,10.06
2018-02-16T14:12:24.895Z,10.10
2018-02-16T14:14:51.922Z,10.15
2018-02-16T14:17:19.009Z,10.16
2018-02-16T14:19:46.009Z,10.25
2018-02-16T14:22:13.046Z,10.33
2018-02-16T14:24:40.093Z,10.45
2018-02-16T14:27:07.155Z,10.44
2018-02-16T14:29:34.214Z,10.35
2018-02-16T14:32:01.175Z,10.20
2018-02-16T14:34:28.197Z,10.13
2018-02-16T14:36:55.238Z,10.22
2018-02-16T14:39:22.302Z,10.27
2018-02-16T14:41:49.344Z,10.31
2018-02-16T14:44:16.434Z,10.35
2018-02-16T14:46:43.401Z,10.40
2018-02-16T14:49:10.370Z,10.42
2018-02-16T14:51:37.502Z,10.39
2018-02-16T14:54:04.598Z,10.32
2018-02-16T14:56:31.616Z,10.30
2018-02-16T14:58:58.716Z,10.30
2018-02-16T15:01:25.745Z,10.32
2018-02-16T15:03:52.808Z,10.25
2018-02-16T15:06:20.301Z,10.23
2018-02-16T15:08:47.361Z,10.22
2018-02-16T15:11:14.492Z,10.22
2018-02-16T15:13:42.234Z,10.18
2018-02-16T15:16:09.310Z,10.09
2018-02-16T15:18:36.378Z,10.02
2018-02-16T15:21:03.511Z,10.05
2018-02-16T15:23:30.599Z,10.12
2018-02-16T15:25:57.670Z,10.11
2018-02-16T15:28:24.699Z,10.13
2018-02-16T15:30:51.741Z,10.11
2018-02-16T15:33:18.814Z,10.01
2018-02-16T15:35:45.853Z,10.03
2018-02-16T15:38:12.869Z,9.97
2018-02-16T15:40:39.848Z,9.99
2018-02-16T15:43:06.894Z,9.99
2018-02-16T15:45:34.775Z,9.93
2018-02-16T15:48:01.788Z,9.95
2018-02-16T15:50:30.242Z,10.00
2018-02-16T15:52:57.285Z,9.93
2018-02-16T15:55:24.517Z,9.87
2018-02-16T15:57:51.685Z,9.91
2018-02-16T16:00:18.669Z,9.92
2018-02-16T16:02:45.713Z,9.80
2018-02-16T16:05:12.747Z,9.70
2018-02-16T16:07:39.815Z,9.68
2018-02-16T16:10:06.884Z,9.68
2018-02-16T16:12:33.940Z,9.74
2018-02-16T16:15:00.968Z,9.77
2018-02-16T16:17:27.979Z,9.74
2018-02-16T16:19:54.997Z,9.69
2018-02-16T16:22:22.029Z,9.63
2018-02-16T16:24:49.131Z,9.56
2018-02-16T16:27:16.207Z,9.54
2018-02-16T16:29:43.220Z,9.54
2018-02-16T16:32:10.340Z,9.50
2018-02-16T16:34:37.822Z,9.49
2018-02-16T16:37:04.868Z,9.44
2018-02-16T16:39:31.936Z,9.40
2018-02-16T16:41:59.003Z,9.43
2018-02-16T16:44:26.258Z,9.44
2018-02-16T16:46:53.263Z,9.50
2018-02-16T16:49:20.271Z,9.53
2018-02-16T16:51:47.311Z,9.55
2018-02-16T16:54:14.316Z,9.51
2018-02-16T16:56:41.383Z,9.50
2018-02-16T16:59:08.453Z,9.45
2018-02-16T17:01:35.549Z,9.37
2018-02-16T17:04:02.607Z,9.31
2018-02-16T17:06:29.656Z,9.26
2018-02-16T17:08:56.689Z,9.20
2018-02-16T17:11:23.844Z,9.20
2018-02-16T17:13:50.833Z,9.26
2018-02-16T17:16:17.822Z,9.33
2018-02-16T17:18:44.834Z,9.42
2018-02-16T17:21:12.133Z,9.28
2018-02-16T17:23:39.177Z,9.23
2018-02-16T17:26:06.224Z,9.19
2018-02-16T17:28:33.272Z,9.20
2018-02-16T17:31:00.334Z,9.22
2018-02-16T17:33:27.431Z,9.25
2018-02-16T17:35:54.439Z,9.21
2018-02-16T17:38:21.481Z,9.17
2018-02-16T17:40:48.713Z,9.15
2018-02-16T17:43:15.950Z,9.12
2018-02-16T17:45:43.057Z,9.09
2018-02-16T17:48:10.181Z,9.08
2018-02-16T17:50:37.330Z,9.13
2018-02-16T17:53:04.515Z,9.09
2018-02-16T17:55:31.561Z,9.05
2018-02-16T17:57:58.609Z,9.09
2018-02-16T18:00:25.591Z,9.06
2018-02-16T18:02:52.555Z,9.07
2018-02-16T18:05:19.590Z,9.06
2018-02-16T18:07:46.758Z,9.10
2018-02-16T18:10:13.806Z,9.17
2018-02-16T18:12:40.817Z,9.09
2018-02-16T18:15:07.881Z,9.10
2018-02-16T18:17:35.055Z,9.09
2018-02-16T18:20:02.099Z,9.06
2018-02-16T18:22:29.223Z,9.08
2018-02-16T18:24:56.396Z,9.12
2018-02-16T18:27:23.641Z,9.15
2018-02-16T18:29:50.898Z,9.13
2018-02-16T18:32:17.935Z,9.11
2018-02-16T18:34:44.961Z,9.03
2018-02-16T18:37:12.643Z,8.92
2018-02-16T18:39:39.659Z,8.88
2018-02-16T18:42:06.742Z,8.89
2018-02-16T18:44:34.257Z,8.89
2018-02-16T18:47:01.354Z,8.80
2018-02-16T18:49:29.138Z,8.83
2018-02-16T18:51:56.169Z,8.88
2018-02-16T18:54:23.222Z,8.85
2018-02-16T18:56:50.290Z,8.77
2018-02-16T18:59:17.365Z,8.75
2018-02-16T19:01:44.450Z,8.72
2018-02-16T19:04:11.538Z,8.66
2018-02-16T19:06:38.579Z,8.64
2018-02-16T19:09:05.581Z,8.63
2018-02-16T19:11:32.913Z,8.64
2018-02-16T19:14:00.805Z,8.63
2018-02-16T19:16:27.882Z,8.72
2018-02-16T19:18:54.906Z,8.76
2018-02-16T19:21:21.953Z,8.77
2018-02-16T19:23:49.071Z,8.72
2018-02-16T19:26:16.088Z,8.70
2018-02-16T19:28:43.127Z,8.75
2018-02-16T19:31:10.187Z,8.66
2018-02-16T19:33:37.222Z,8.66
2018-02-16T19:36:04.269Z,8.66
2018-02-16T19:38:31.287Z,8.66
2018-02-16T19:40:58.314Z,8.64
2018-02-16T19:43:25.303Z,8.64
2018-02-16T19:45:52.246Z,8.65
2018-02-16T19:48:19.208Z,8.60
2018-02-16T19:50:46.262Z,8.62
2018-02-16T19:53:14.077Z,8.60
2018-02-16T19:55:41.140Z,8.63
2018-02-16T19:58:08.206Z,8.67
2018-02-16T20:00:35.245Z,8.64
2018-02-16T20:03:02.289Z,8.62
2018-02-16T20:05:29.360Z,8.57
2018-02-16T20:07:56.530Z,8.64
2018-02-16T20:10:23.540Z,8.62
2018-02-16T20:12:50.537Z,8.58
2018-02-16T20:15:17.562Z,8.50
2018-02-16T20:17:44.610Z,8.35
2018-02-16T20:20:11.675Z,8.37
2018-02-16T20:22:38.756Z,8.34
2018-02-16T20:25:05.795Z,8.30
2018-02-16T20:27:32.806Z,8.26
2018-02-16T20:29:59.854Z,8.26
2018-02-16T20:32:26.877Z,8.31
2018-02-16T20:34:54.068Z,8.36
2018-02-16T20:37:21.090Z,8.38
2018-02-16T20:39:48.188Z,8.26
2018-02-16T20:42:15.215Z,8.23
2018-02-16T20:44:42.287Z,8.20
2018-02-16T20:47:09.342Z,8.17
2018-02-16T20:49:36.435Z,8.15
2018-02-16T20:52:03.499Z,8.11
2018-02-16T20:54:30.428Z,8.07
2018-02-16T20:56:57.513Z,8.09
2018-02-16T20:59:24.538Z,8.07
2018-02-16T21:01:51.632Z,8.08
2018-02-16T21:04:18.726Z,8.11
2018-02-16T21:06:45.771Z,8.15
2018-02-16T21:09:12.804Z,8.22
2018-02-16T21:11:39.883Z,8.11
2018-02-16T21:14:06.967Z,8.18
2018-02-16T21:16:34.055Z,8.14
2018-02-16T21:19:01.132Z,8.23
2018-02-16T21:21:28.222Z,8.23
2018-02-16T21:23:55.397Z,8.19
2018-02-16T21:26:22.475Z,8.16
2018-02-16T21:28:49.571Z,8.12
2018-02-16T21:31:16.643Z,8.04
2018-02-16T21:33:43.593Z,8.14
2018-02-16T21:36:10.664Z,8.22
2018-02-16T21:38:37.668Z,8.21
2018-02-16T21:41:04.663Z,8.17
2018-02-16T21:43:31.636Z,8.08
2018-02-16T21:45:58.690Z,8.08
2018-02-16T21:48:25.686Z,8.12
2018-02-16T21:50:52.701Z,8.15
2018-02-16T21:53:19.774Z,8.18
2018-02-16T21:55:46.825Z,8.21
2018-02-16T21:58:13.914Z,8.15
2018-02-16T22:00:41.015Z,8.17
2018-02-16T22:03:08.085Z,8.26
2018-02-16T22:05:35.128Z,8.25
2018-02-16T22:08:02.153Z,8.29
2018-02-16T22:10:29.258Z,8.39
2018-02-16T22:12:56.373Z,8.32
2018-02-16T22:15:23.492Z,8.25
2018-02-16T22:17:50.507Z,8.23
2018-02-16T22:20:18.422Z,8.25
2018-02-16T22:22:45.551Z,8.22
2018-02-16T22:25:12.643Z,8.08
2018-02-16T22:27:39.752Z,8.08
2018-02-16T22:30:06.806Z,8.18
2018-02-16T22:32:33.968Z,8.21
2018-02-16T22:35:00.995Z,8.21
2018-02-16T22:37:28.079Z,8.18
2018-02-16T22:39:55.085Z,8.18
2018-02-16T22:42:22.086Z,8.17
2018-02-16T22:44:49.104Z,8.18
2018-02-16T22:47:16.164Z,8.19
2018-02-16T22:49:43.148Z,8.18
2018-02-16T22:52:10.250Z,8.17
2018-02-16T22:54:37.311Z,8.13
2018-02-16T22:57:04.487Z,8.09
2018-02-16T22:59:31.546Z,8.03
2018-02-16T23:01:58.607Z,7.99
2018-02-16T23:04:25.578Z,7.96
2018-02-16T23:06:52.571Z,8.08
2018-02-16T23:09:19.857Z,8.07
2018-02-16T23:11:46.927Z,8.15
2018-02-16T23:14:13.953Z,8.18
2018-02-16T23:16:40.926Z,8.21
2018-02-16T23:19:07.928Z,8.20
2018-02-16T23:21:34.991Z,8.16
2018-02-16T23:24:02.279Z,8.13
2018-02-16T23:26:29.294Z,8.14
2018-02-16T23:28:56.333Z,8.10
2018-02-16T23:31:23.379Z,8.07
2018-02-16T23:33:50.348Z,7.99
2018-02-16T23:36:17.401Z,7.97
2018-02-16T23:38:44.445Z,7.91
2018-02-16T23:41:11.532Z,7.87
2018-02-16T23:43:39.125Z,7.95
2018-02-16T23:46:06.078Z,8.02
2018-02-16T23:48:33.149Z,7.99
2018-02-16T23:51:00.217Z,8.06
2018-02-16T23:53:27.239Z,8.13
2018-02-16T23:55:54.283Z,8.03
2018-02-16T23:58:21.585Z,7.92
